createdAt,value
2019-03-03T00:42:43.751Z,31.42
2019-03-03T00:45:15.507Z,31.27
2019-03-03T01:14:15.598Z,30.55
2019-03-03T01:16:52.860Z,29.12
2019-03-03T01:19:30.209Z,25.95
2019-03-03T01:22:01.845Z,28.83
2019-03-03T01:24:42.512Z,32.20
2019-03-03T01:27:12.374Z,28.87
2019-03-03T01:29:42.325Z,30.10
2019-03-03T01:32:13.120Z,30.90
2019-03-03T01:34:43.064Z,27.85
2019-03-03T01:37:12.922Z,29.37
2019-03-03T01:39:42.875Z,26.45
2019-03-03T01:42:12.868Z,27.65
2019-03-03T01:44:42.817Z,26.68
2019-03-03T01:47:12.812Z,27.27
2019-03-03T01:49:42.761Z,24.55
2019-03-03T01:52:12.623Z,25.43
2019-03-03T01:54:42.570Z,23.40
2019-03-03T01:57:12.507Z,26.25
2019-03-03T01:59:42.363Z,26.10
2019-03-03T02:02:12.373Z,27.37
2019-03-03T02:04:42.225Z,21.48
2019-03-03T02:07:12.111Z,26.07
2019-03-03T02:09:42.379Z,25.05
2019-03-03T02:12:12.699Z,22.35
2019-03-03T02:14:42.635Z,22.50
2019-03-03T02:17:13.353Z,26.23
2019-03-03T02:19:43.204Z,26.95
2019-03-03T02:22:13.222Z,24.18
2019-03-03T02:24:43.144Z,22.85
2019-03-03T02:27:13.192Z,24.12
2019-03-03T02:29:43.042Z,25.30
2019-03-03T02:32:12.932Z,22.48
2019-03-03T02:34:42.856Z,22.60
2019-03-03T02:37:12.749Z,21.57
2019-03-03T02:39:42.752Z,24.80
2019-03-03T02:42:12.706Z,23.98
2019-03-03T02:44:42.640Z,21.07
2019-03-03T02:47:12.517Z,21.52
2019-03-03T02:49:42.447Z,21.85
2019-03-03T02:52:12.417Z,21.60
2019-03-03T02:54:42.336Z,24.37
2019-03-03T02:57:12.210Z,22.42
2019-03-03T02:59:42.141Z,22.30
2019-03-03T03:02:13.672Z,23.02
2019-03-03T03:04:43.683Z,21.35
2019-03-03T03:07:15.264Z,21.02
2019-03-03T03:09:58.716Z,20.30
2019-03-03T03:12:46.822Z,24.47
2019-03-03T03:15:36.697Z,19.65
2019-03-03T03:18:23.095Z,23.10
2019-03-03T03:21:06.689Z,20.65
2019-03-03T03:23:44.307Z,21.55
2019-03-03T03:26:24.662Z,20.20
2019-03-03T03:29:12.476Z,20.57
2019-03-03T03:31:44.050Z,19.48
2019-03-03T03:34:18.626Z,22.00
2019-03-03T03:37:02.629Z,20.00
2019-03-03T03:39:39.914Z,19.30
2019-03-03T03:42:21.091Z,21.17
2019-03-03T03:45:09.122Z,22.15
2019-03-03T03:47:40.685Z,20.68
2019-03-03T03:50:18.436Z,19.12
2019-03-03T03:52:52.810Z,19.77
2019-03-03T03:55:27.227Z,18.30
2019-03-03T03:58:01.523Z,18.32
2019-03-03T04:00:36.010Z,17.80
2019-03-03T04:03:13.904Z,18.05
2019-03-03T04:05:54.599Z,17.35
2019-03-03T04:08:26.303Z,17.80
2019-03-03T04:11:00.873Z,17.40
2019-03-03T04:13:39.457Z,17.40
2019-03-03T04:16:11.056Z,16.67
2019-03-03T04:18:42.694Z,18.02
2019-03-03T04:21:20.073Z,18.00
2019-03-03T04:23:51.567Z,16.93
2019-03-03T04:26:31.718Z,18.20
2019-03-03T04:29:19.877Z,17.37
2019-03-03T04:31:54.126Z,12.43
2019-03-03T04:34:42.290Z,15.08
2019-03-03T04:37:13.877Z,16.27
2019-03-03T04:39:45.376Z,14.58
2019-03-03T04:42:35.063Z,14.15
2019-03-03T04:45:11.205Z,15.72
2019-03-03T04:47:48.861Z,21.73
2019-03-03T04:50:20.368Z,23.90
2019-03-03T04:53:01.212Z,17.57
2019-03-03T04:55:35.697Z,25.43
2019-03-03T04:58:10.084Z,19.92
2019-03-03T05:00:44.828Z,21.80
2019-03-03T05:03:25.544Z,20.30
2019-03-03T05:06:06.920Z,18.57
2019-03-03T05:08:38.431Z,21.55
2019-03-03T05:11:09.942Z,16.77
2019-03-03T05:13:44.123Z,19.60
2019-03-03T05:16:15.628Z,18.60
2019-03-03T05:18:56.317Z,21.10
2019-03-03T05:21:26.241Z,21.07
2019-03-03T05:23:56.121Z,19.73
2019-03-03T05:26:26.052Z,18.75
2019-03-03T05:28:55.940Z,20.37
2019-03-03T05:31:25.800Z,15.55
2019-03-03T05:33:55.675Z,17.70
2019-03-03T05:36:25.550Z,17.00
2019-03-03T05:38:55.424Z,14.38
2019-03-03T05:41:25.287Z,20.32
2019-03-03T05:43:55.166Z,15.65
2019-03-03T05:46:25.084Z,16.37
2019-03-03T05:48:54.966Z,16.23
2019-03-03T05:51:24.900Z,17.92
2019-03-03T05:53:54.860Z,15.93
2019-03-03T05:56:24.793Z,14.80
2019-03-03T05:58:54.729Z,16.65
2019-03-03T06:01:24.604Z,15.38
2019-03-03T06:03:54.464Z,13.78
2019-03-03T06:06:24.340Z,14.68
2019-03-03T06:08:54.191Z,18.70
2019-03-03T06:11:24.069Z,12.45
2019-03-03T06:13:53.932Z,15.25
2019-03-03T06:16:23.813Z,17.70
2019-03-03T06:18:53.664Z,14.10
2019-03-03T06:21:24.619Z,15.45
2019-03-03T06:23:54.552Z,14.25
2019-03-03T06:26:24.839Z,12.75
2019-03-03T06:28:54.693Z,12.18
2019-03-03T06:31:24.642Z,12.13
2019-03-03T06:33:54.589Z,12.07
2019-03-03T06:36:24.460Z,13.80
2019-03-03T06:38:54.316Z,11.85
2019-03-03T06:41:24.196Z,13.60
2019-03-03T06:43:54.051Z,14.05
2019-03-03T06:46:24.004Z,12.63
2019-03-03T06:48:53.868Z,11.48
2019-03-03T06:51:23.817Z,12.18
2019-03-03T06:53:53.742Z,12.30
2019-03-03T06:56:23.613Z,12.55
2019-03-03T06:58:53.493Z,11.55
2019-03-03T07:01:23.480Z,11.93
2019-03-03T07:03:53.356Z,11.88
2019-03-03T07:06:23.222Z,11.78
2019-03-03T07:08:53.172Z,12.33
2019-03-03T07:11:23.020Z,11.63
2019-03-03T07:13:52.897Z,12.40
2019-03-03T07:16:22.760Z,13.62
2019-03-03T07:18:53.772Z,13.83
2019-03-03T07:21:23.632Z,11.30
2019-03-03T07:23:53.647Z,11.20
2019-03-03T07:26:23.514Z,11.78
2019-03-03T07:28:53.456Z,12.10
2019-03-03T07:31:23.316Z,13.10
2019-03-03T07:33:54.056Z,11.45
2019-03-03T07:36:23.913Z,11.80
2019-03-03T07:38:53.793Z,11.38
2019-03-03T07:41:23.649Z,12.63
2019-03-03T07:43:53.666Z,9.90
2019-03-03T07:46:23.607Z,10.45
2019-03-03T07:48:53.542Z,11.05
2019-03-03T07:51:23.553Z,10.78
2019-03-03T07:53:53.397Z,10.25
2019-03-03T07:56:23.269Z,10.60
2019-03-03T07:58:53.114Z,10.43
2019-03-03T08:01:22.984Z,10.20
2019-03-03T08:03:52.832Z,10.08
2019-03-03T08:06:22.708Z,10.03
2019-03-03T08:08:52.552Z,9.85
2019-03-03T08:11:22.417Z,10.13
2019-03-03T08:13:52.269Z,9.15
2019-03-03T08:16:22.132Z,9.75
2019-03-03T08:18:52.047Z,10.45
2019-03-03T08:21:21.895Z,9.23
2019-03-03T08:23:51.765Z,9.68
2019-03-03T08:26:21.612Z,8.90
2019-03-03T08:28:51.551Z,9.98
2019-03-03T08:31:21.393Z,10.40
2019-03-03T08:33:51.270Z,10.60
2019-03-03T08:36:21.117Z,10.82
2019-03-03T08:38:51.164Z,10.63
2019-03-03T08:41:21.020Z,9.53
2019-03-03T08:43:52.529Z,10.25
2019-03-03T08:46:24.031Z,10.10
2019-03-03T08:48:55.622Z,10.58
2019-03-03T08:51:27.184Z,9.28
2019-03-03T08:53:58.688Z,9.13
2019-03-03T08:56:46.393Z,9.95
2019-03-03T08:59:34.170Z,9.55
2019-03-03T09:02:11.720Z,9.28
2019-03-03T09:04:58.412Z,8.75
2019-03-03T09:07:44.959Z,9.10
2019-03-03T09:10:32.833Z,10.60
2019-03-03T09:13:04.338Z,10.63
2019-03-03T09:15:51.306Z,9.18
2019-03-03T09:18:22.871Z,8.50
2019-03-03T09:21:12.010Z,9.38
2019-03-03T09:23:46.562Z,8.30
2019-03-03T09:26:18.067Z,11.65
2019-03-03T09:28:49.566Z,8.35
2019-03-03T09:31:37.658Z,8.00
2019-03-03T09:34:09.208Z,8.13
2019-03-03T09:36:43.506Z,7.55
2019-03-03T09:39:15.128Z,8.35
2019-03-03T09:41:49.326Z,10.43
2019-03-03T09:44:37.196Z,9.15
2019-03-03T09:47:08.695Z,9.13
2019-03-03T09:49:46.304Z,8.08
2019-03-03T09:52:17.815Z,8.15
2019-03-03T09:54:52.315Z,9.00
2019-03-03T09:57:24.895Z,8.78
2019-03-03T10:00:08.354Z,8.40
2019-03-03T10:02:45.934Z,7.60
2019-03-03T10:05:26.407Z,8.48
2019-03-03T10:08:07.148Z,8.88
2019-03-03T10:10:50.705Z,9.03
2019-03-03T10:13:22.359Z,8.48
2019-03-03T10:15:53.908Z,7.58
2019-03-03T10:18:37.576Z,9.05
2019-03-03T10:21:12.092Z,11.18
2019-03-03T10:23:43.688Z,8.83
2019-03-03T10:26:32.095Z,7.33
2019-03-03T10:29:03.851Z,8.15
2019-03-03T10:31:36.455Z,8.13
2019-03-03T10:34:14.025Z,7.20
2019-03-03T10:36:51.564Z,8.18
2019-03-03T10:39:28.868Z,7.17
2019-03-03T10:42:09.640Z,8.78
2019-03-03T10:44:41.225Z,7.20
2019-03-03T10:47:12.717Z,9.03
2019-03-03T10:49:49.895Z,7.75
2019-03-03T10:52:27.317Z,3.55
2019-03-03T10:54:59.108Z,4.95
2019-03-03T10:57:36.476Z,3.87
2019-03-03T11:00:27.170Z,1.42
2019-03-03T11:02:58.961Z,2.65
2019-03-03T11:05:39.801Z,1.92
2019-03-03T11:08:14.530Z,1.30
2019-03-03T11:11:02.116Z,6.35
2019-03-03T11:13:36.539Z,4.03
2019-03-03T11:16:17.101Z,2.70
2019-03-03T11:18:56.008Z,2.25
2019-03-03T11:21:24.847Z,2.45
2019-03-03T11:24:03.602Z,4.97
2019-03-03T11:26:35.106Z,4.42
2019-03-03T11:29:07.076Z,4.45
2019-03-03T11:31:57.096Z,6.05
2019-03-03T11:34:29.822Z,7.87
2019-03-03T11:37:02.292Z,5.65
2019-03-03T11:39:34.850Z,5.45
2019-03-03T11:42:06.497Z,7.95
2019-03-03T11:44:53.025Z,10.55
2019-03-03T11:47:30.404Z,9.90
2019-03-03T11:50:04.608Z,7.60
2019-03-03T11:52:38.793Z,9.58
2019-03-03T11:55:13.172Z,8.88
2019-03-03T11:57:47.440Z,12.55
2019-03-03T12:00:22.056Z,11.22
2019-03-03T12:02:59.383Z,12.73
2019-03-03T12:05:43.095Z,11.97
2019-03-03T12:08:23.335Z,10.65
2019-03-03T12:10:54.891Z,15.88
2019-03-03T12:13:35.725Z,13.10
2019-03-03T12:16:19.488Z,12.85
2019-03-03T12:19:07.475Z,14.63
2019-03-03T12:21:42.619Z,5.70
2019-03-03T12:24:29.496Z,4.42
2019-03-03T12:27:19.185Z,4.70
2019-03-03T12:30:02.604Z,5.40
2019-03-03T12:32:36.915Z,3.10
2019-03-03T12:35:24.684Z,3.22
2019-03-03T12:38:05.030Z,3.12
2019-03-03T12:40:36.628Z,3.15
2019-03-03T12:43:11.242Z,4.47
2019-03-03T12:45:57.812Z,3.55
2019-03-03T12:48:29.369Z,1.00
2019-03-03T12:51:00.911Z,1.65
2019-03-03T12:53:35.392Z,1.95
2019-03-03T12:56:23.583Z,2.55
2019-03-03T12:59:03.883Z,2.47
2019-03-03T13:01:38.145Z,6.60
2019-03-03T13:04:18.638Z,4.58
2019-03-03T13:07:05.381Z,5.12
2019-03-03T13:09:39.626Z,5.47
2019-03-03T13:12:11.194Z,5.03
2019-03-03T13:14:54.779Z,5.25
2019-03-03T13:17:35.106Z,5.80
2019-03-03T13:20:09.735Z,7.42
2019-03-03T13:22:41.416Z,14.83
2019-03-03T13:25:13.044Z,10.85
2019-03-03T13:27:44.696Z,12.58
2019-03-03T13:30:20.083Z,20.77
2019-03-03T13:32:54.588Z,13.88
2019-03-03T13:35:35.338Z,9.65
2019-03-03T13:38:07.064Z,7.65
2019-03-03T13:40:38.619Z,10.38
2019-03-03T13:43:09.633Z,6.78
2019-03-03T13:45:39.687Z,8.13
2019-03-03T13:48:09.693Z,6.83
2019-03-03T13:50:39.775Z,5.03
2019-03-03T13:53:09.787Z,7.22
2019-03-03T13:55:39.781Z,6.33
2019-03-03T13:58:09.788Z,7.17
2019-03-03T14:00:40.040Z,6.75
2019-03-03T14:03:10.087Z,4.28
2019-03-03T14:05:40.278Z,5.35
2019-03-03T14:08:10.214Z,9.08
2019-03-03T14:10:40.212Z,5.65
2019-03-03T14:13:10.087Z,3.75
2019-03-03T14:15:39.945Z,4.30
2019-03-03T14:18:09.967Z,5.37
2019-03-03T14:20:39.884Z,4.65
2019-03-03T14:23:09.900Z,6.17
2019-03-03T14:25:39.885Z,5.28
2019-03-03T14:28:09.969Z,3.67
2019-03-03T14:30:39.968Z,6.28
2019-03-03T14:33:09.967Z,5.45
2019-03-03T14:35:39.826Z,4.17
2019-03-03T14:38:09.767Z,3.95
2019-03-03T14:40:39.619Z,4.17
2019-03-03T14:43:09.624Z,3.42
2019-03-03T14:45:39.560Z,4.45
2019-03-03T14:48:09.572Z,5.60
2019-03-03T14:50:39.568Z,6.65
2019-03-03T14:53:10.596Z,5.20
2019-03-03T14:55:40.563Z,6.60
2019-03-03T14:58:10.637Z,5.83
2019-03-03T15:00:40.559Z,7.62
2019-03-03T15:03:10.567Z,5.70
2019-03-03T15:05:40.419Z,9.73
2019-03-03T15:08:10.424Z,8.18
2019-03-03T15:10:40.418Z,9.98
2019-03-03T15:13:10.424Z,8.03
2019-03-03T15:15:40.608Z,12.85
2019-03-03T15:18:10.544Z,18.40
2019-03-03T15:20:40.528Z,14.93
2019-03-03T15:23:10.687Z,14.15
2019-03-03T15:25:40.748Z,18.67
2019-03-03T15:28:10.861Z,14.20
2019-03-03T15:30:40.864Z,13.28
2019-03-03T15:33:11.019Z,13.13
2019-03-03T15:35:41.217Z,15.00
2019-03-03T15:38:11.240Z,17.57
2019-03-03T15:40:41.253Z,14.30
2019-03-03T15:43:11.336Z,19.17
2019-03-03T15:45:41.332Z,14.78
2019-03-03T15:48:11.229Z,14.38
2019-03-03T15:50:41.164Z,16.70
2019-03-03T15:53:11.133Z,19.77
2019-03-03T15:55:41.163Z,22.45
2019-03-03T15:58:11.172Z,21.37
2019-03-03T16:00:42.105Z,27.80
2019-03-03T16:03:12.109Z,26.33
2019-03-03T16:05:42.212Z,28.50
2019-03-03T16:08:12.156Z,25.37
2019-03-03T16:10:42.117Z,24.80
2019-03-03T16:13:12.119Z,32.90
2019-03-03T16:15:42.161Z,35.28
2019-03-03T16:18:12.238Z,34.83
2019-03-03T16:20:42.266Z,32.53
2019-03-03T16:23:12.238Z,26.93
2019-03-03T16:25:42.471Z,29.27
2019-03-03T16:28:12.715Z,27.62
2019-03-03T16:30:42.875Z,25.35
2019-03-03T16:33:20.229Z,28.55
2019-03-03T16:35:44.518Z,25.65
2019-03-03T16:38:14.524Z,27.27
2019-03-03T16:40:46.122Z,24.52
2019-03-03T16:43:16.669Z,24.07
2019-03-03T16:45:46.873Z,21.02
2019-03-03T16:48:16.988Z,23.47
2019-03-03T16:50:46.938Z,21.02
2019-03-03T16:53:16.864Z,21.35
2019-03-03T16:55:47.001Z,21.20
2019-03-03T16:58:17.158Z,18.67
2019-03-03T17:00:47.093Z,20.57
2019-03-03T17:03:17.100Z,21.02
2019-03-03T17:05:47.113Z,19.70
2019-03-03T17:08:17.036Z,18.65
2019-03-03T17:10:46.920Z,17.20
2019-03-03T17:13:18.004Z,17.50
2019-03-03T17:15:48.044Z,17.62
2019-03-03T17:18:18.015Z,18.27
2019-03-03T17:20:48.105Z,18.15
2019-03-03T17:23:18.481Z,16.17
2019-03-03T17:25:49.089Z,16.60
2019-03-03T17:28:19.321Z,15.80
2019-03-03T17:30:50.164Z,15.68
2019-03-03T17:33:20.891Z,15.53
2019-03-03T17:35:52.010Z,15.25
2019-03-03T17:38:22.626Z,15.32
2019-03-03T17:40:53.217Z,15.68
2019-03-03T17:43:23.993Z,14.47
2019-03-03T17:45:55.184Z,14.25
2019-03-03T17:48:26.302Z,14.78
2019-03-03T17:50:57.467Z,14.83
2019-03-03T17:53:28.673Z,16.52
2019-03-03T17:55:59.837Z,13.85
2019-03-03T17:58:31.006Z,13.88
2019-03-03T18:01:02.135Z,14.45
2019-03-03T18:03:33.282Z,12.60
2019-03-03T18:06:04.469Z,13.13
2019-03-03T18:08:35.703Z,13.25
2019-03-03T18:11:06.804Z,11.70
2019-03-03T18:13:37.961Z,13.05
2019-03-03T18:16:09.071Z,12.28
2019-03-03T18:18:40.299Z,12.55
2019-03-03T18:21:11.412Z,12.30
2019-03-03T18:23:42.653Z,10.58
2019-03-03T18:26:13.884Z,11.75
2019-03-03T18:28:45.126Z,11.48
2019-03-03T18:31:16.308Z,11.57
2019-03-03T18:33:47.543Z,11.38
2019-03-03T18:36:18.674Z,10.60
2019-03-03T18:38:50.124Z,11.05
2019-03-03T18:41:21.237Z,10.18
2019-03-03T18:43:52.546Z,10.25
2019-03-03T18:46:23.714Z,11.03
2019-03-03T18:48:54.937Z,9.65
2019-03-03T18:51:26.077Z,10.40
2019-03-03T18:53:57.431Z,8.38
2019-03-03T18:56:28.489Z,10.30
2019-03-03T18:58:59.734Z,9.40
2019-03-03T19:01:30.848Z,9.45
2019-03-03T19:04:02.083Z,9.15
2019-03-03T19:06:34.993Z,8.68
2019-03-03T19:09:09.022Z,8.68
2019-03-03T19:11:40.734Z,8.15
2019-03-03T19:14:12.078Z,8.50
2019-03-03T19:16:43.298Z,8.78
2019-03-03T19:19:15.599Z,7.33
2019-03-03T19:21:46.718Z,7.97
2019-03-03T19:24:18.050Z,8.43
2019-03-03T19:26:49.198Z,7.87
2019-03-03T19:29:20.416Z,7.60
2019-03-03T19:34:22.364Z,7.08
2019-03-03T19:36:53.469Z,7.37
2019-03-03T19:39:24.771Z,7.00
2019-03-03T19:41:55.904Z,7.53
2019-03-03T19:44:27.121Z,8.13
2019-03-03T19:46:58.253Z,6.78
2019-03-03T19:49:29.471Z,7.25
2019-03-03T19:52:00.597Z,7.05
2019-03-03T19:54:32.122Z,6.90
2019-03-03T19:57:03.461Z,7.45
2019-03-03T19:59:34.593Z,6.85
2019-03-03T20:02:07.838Z,8.30
2019-03-03T20:04:38.967Z,6.17
2019-03-03T20:07:10.556Z,6.75
2019-03-03T20:09:43.157Z,7.70
2019-03-03T20:12:15.391Z,7.65
2019-03-03T20:14:47.969Z,6.83
2019-03-03T20:17:19.164Z,6.78
2019-03-03T20:19:50.377Z,7.30
2019-03-03T20:22:21.560Z,7.12
2019-03-03T20:24:52.868Z,8.28
2019-03-03T20:27:23.958Z,6.78
2019-03-03T20:29:55.173Z,9.35
2019-03-03T20:32:26.515Z,7.33
2019-03-03T20:34:57.728Z,6.92
2019-03-03T20:37:28.967Z,11.88
2019-03-03T20:40:00.364Z,6.12
2019-03-03T20:42:31.468Z,6.28
2019-03-03T20:45:02.713Z,7.77
2019-03-03T20:47:33.922Z,8.15
2019-03-03T20:50:07.903Z,4.92
2019-03-03T20:52:38.977Z,7.00
2019-03-03T20:55:18.967Z,5.70
2019-03-03T20:57:50.239Z,8.83
2019-03-03T21:00:30.644Z,5.83
2019-03-03T21:03:01.774Z,7.40
2019-03-03T21:05:33.002Z,6.03
2019-03-03T21:08:04.120Z,9.63
2019-03-03T21:10:36.338Z,8.70
2019-03-03T21:13:07.455Z,5.62
2019-03-03T21:15:38.661Z,8.10
2019-03-03T21:18:09.773Z,7.65
2019-03-03T21:20:42.099Z,7.12
2019-03-03T21:23:13.314Z,6.97
2019-03-03T21:25:44.648Z,6.75
2019-03-03T21:28:15.747Z,6.87
2019-03-03T21:30:46.987Z,9.43
2019-03-03T21:33:18.108Z,6.50
2019-03-03T21:35:49.377Z,7.37
2019-03-03T21:38:20.504Z,6.33
2019-03-03T21:40:51.706Z,12.40
2019-03-03T21:43:22.867Z,5.70
2019-03-03T21:45:53.971Z,8.65
2019-03-03T21:48:25.077Z,5.75
2019-03-03T21:50:56.037Z,6.97
2019-03-03T21:53:26.701Z,6.90
2019-03-03T21:55:58.373Z,6.45
2019-03-03T21:58:28.700Z,6.20
2019-03-03T22:00:58.830Z,5.78
2019-03-03T22:03:28.812Z,7.37
2019-03-03T22:05:58.912Z,6.90
2019-03-03T22:08:28.830Z,7.92
2019-03-03T22:10:59.772Z,5.70
2019-03-03T22:13:29.689Z,5.33
2019-03-03T22:15:59.556Z,4.35
2019-03-03T22:18:29.419Z,5.33
2019-03-03T22:20:59.341Z,4.58
2019-03-03T22:23:29.216Z,5.22
2019-03-03T22:25:59.137Z,4.72
2019-03-03T22:28:29.070Z,4.83
2019-03-03T22:30:59.014Z,6.55
2019-03-03T22:33:28.928Z,4.70
2019-03-03T22:35:58.854Z,5.17
2019-03-03T22:38:28.788Z,4.12
2019-03-03T22:40:58.789Z,5.72
2019-03-03T22:43:28.733Z,6.10
2019-03-03T22:45:58.668Z,5.10
2019-03-03T22:48:28.507Z,4.65
2019-03-03T22:50:58.368Z,3.70
2019-03-03T22:53:28.216Z,5.87
2019-03-03T22:55:58.073Z,5.28
2019-03-03T22:58:27.912Z,4.42
2019-03-03T23:01:01.283Z,4.40
2019-03-03T23:03:41.226Z,4.12
2019-03-03T23:06:19.992Z,4.53
2019-03-03T23:08:58.597Z,4.90
2019-03-03T23:11:34.468Z,4.60
2019-03-03T23:14:13.198Z,5.78
2019-03-03T23:16:46.216Z,3.98
2019-03-03T23:19:43.616Z,4.97
2019-03-03T23:22:28.280Z,4.03
2019-03-03T23:25:01.233Z,3.92
2019-03-03T23:27:31.191Z,4.87
2019-03-03T23:30:01.067Z,4.62
2019-03-03T23:32:30.977Z,4.05
2019-03-03T23:35:00.836Z,3.90
2019-03-03T23:37:30.692Z,3.47
2019-03-03T23:40:00.628Z,4.22
2019-03-03T23:42:30.620Z,3.37
2019-03-03T23:45:00.492Z,3.87
2019-03-03T23:47:30.410Z,4.33
2019-03-03T23:50:00.347Z,3.90
2019-03-03T23:52:30.262Z,3.80
2019-03-03T23:55:00.249Z,4.37
2019-03-03T23:57:30.246Z,5.08
